sensor_id;sensor_type;location;lat;lon;timestamp;temperature;humidity
30134;DHT22;16946;49.984;10.672;2023-03-23T00:00:00;12.80;99.90
30134;DHT22;16946;49.984;10.672;2023-03-23T00:00:31;12.80;99.90
30134;DHT22;16946;49.984;10.672;2023-03-23T00:01:04;12.80;99.90
30134;DHT22;16946;49.984;10.672;2023-03-23T00:01:35;12.80;99.90
30134;DHT22;16946;49.984;10.672;2023-03-23T00:02:07;12.80;99.90
30134;DHT22;16946;49.984;10.672;2023-03-23T00:02:37;12.80;99.90
30134;DHT22;16946;49.984;10.672;2023-03-23T00:03:08;12.80;99.90
30134;DHT22;16946;49.984;10.672;2023-03-23T00:03:40;12.80;99.90
30134;DHT22;16946;49.984;10.672;2023-03-23T00:04:11;12.80;99.90
30134;DHT22;16946;49.984;10.672;2023-03-23T00:04:43;12.80;99.90
30134;DHT22;16946;49.984;10.672;2023-03-23T00:05:14;12.80;99.90
30134;DHT22;16946;49.984;10.672;2023-03-23T00:05:44;12.70;99.90
30134;DHT22;16946;49.984;10.672;2023-03-23T00:06:20;12.70;99.90
30134;DHT22;16946;49.984;10.672;2023-03-23T00:06:51;12.60;99.90
30134;DHT22;16946;49.984;10.672;2023-03-23T00:07:23;12.60;99.90
30134;DHT22;16946;49.984;10.672;2023-03-23T00:07:57;12.50;99.90
30134;DHT22;16946;49.984;10.672;2023-03-23T00:08:34;12.50;99.90
30134;DHT22;16946;49.984;10.672;2023-03-23T00:09:09;12.60;99.90
30134;DHT22;16946;49.984;10.672;2023-03-23T00:09:40;12.60;99.90
30134;DHT22;16946;49.984;10.672;2023-03-23T00:10:11;12.70;99.90
30134;DHT22;16946;49.984;10.672;2023-03-23T00:10:42;12.70;99.90
30134;DHT22;16946;49.984;10.672;2023-03-23T00:11:20;12.70;99.90
30134;DHT22;16946;49.984;10.672;2023-03-23T00:11:51;12.80;99.90
30134;DHT22;16946;49.984;10.672;2023-03-23T00:12:25;12.80;99.90
30134;DHT22;16946;49.984;10.672;2023-03-23T00:13:03;12.80;99.90
30134;DHT22;16946;49.984;10.672;2023-03-23T00:13:35;12.80;99.90
30134;DHT22;16946;49.984;10.672;2023-03-23T00:14:05;12.80;99.90
30134;DHT22;16946;49.984;10.672;2023-03-23T00:14:36;12.70;99.90
30134;DHT22;16946;49.984;10.672;2023-03-23T00:15:11;12.70;99.90
30134;DHT22;16946;49.984;10.672;2023-03-23T00:15:43;12.70;99.90
30134;DHT22;16946;49.984;10.672;2023-03-23T00:16:14;12.60;99.90
30134;DHT22;16946;49.984;10.672;2023-03-23T00:16:48;12.60;99.90
30134;DHT22;16946;49.984;10.672;2023-03-23T00:17:19;12.60;99.90
30134;DHT22;16946;49.984;10.672;2023-03-23T00:17:49;12.60;99.90
30134;DHT22;16946;49.984;10.672;2023-03-23T00:18:21;12.60;99.90
30134;DHT22;16946;49.984;10.672;2023-03-23T00:18:53;12.60;99.90
30134;DHT22;16946;49.984;10.672;2023-03-23T00:19:23;12.60;99.90
30134;DHT22;16946;49.984;10.672;2023-03-23T00:19:54;12.60;99.90
30134;DHT22;16946;49.984;10.672;2023-03-23T00:20:25;12.60;99.90
30134;DHT22;16946;49.984;10.672;2023-03-23T00:20:59;12.60;99.90
30134;DHT22;16946;49.984;10.672;2023-03-23T00:21:35;12.60;99.90
30134;DHT22;16946;49.984;10.672;2023-03-23T00:22:06;12.60;99.90
30134;DHT22;16946;49.984;10.672;2023-03-23T00:22:37;12.60;99.90
30134;DHT22;16946;49.984;10.672;2023-03-23T00:23:08;12.60;99.90
30134;DHT22;16946;49.984;10.672;2023-03-23T00:23:39;12.60;99.90
30134;DHT22;16946;49.984;10.672;2023-03-23T00:24:15;12.60;99.90
30134;DHT22;16946;49.984;10.672;2023-03-23T00:24:48;12.60;99.90
30134;DHT22;16946;49.984;10.672;2023-03-23T00:25:20;12.60;99.90
30134;DHT22;16946;49.984;10.672;2023-03-23T00:25:53;12.60;99.90
30134;DHT22;16946;49.984;10.672;2023-03-23T00:26:26;12.70;99.90
30134;DHT22;16946;49.984;10.672;2023-03-23T00:26:59;12.70;99.90
30134;DHT22;16946;49.984;10.672;2023-03-23T00:27:30;12.70;99.90
30134;DHT22;16946;49.984;10.672;2023-03-23T00:28:01;12.80;99.90
30134;DHT22;16946;49.984;10.672;2023-03-23T00:28:33;12.80;99.90
30134;DHT22;16946;49.984;10.672;2023-03-23T00:29:04;12.80;99.90
30134;DHT22;16946;49.984;10.672;2023-03-23T00:29:34;12.80;99.90
30134;DHT22;16946;49.984;10.672;2023-03-23T00:30:06;12.80;99.90
30134;DHT22;16946;49.984;10.672;2023-03-23T00:30:36;12.80;99.90
30134;DHT22;16946;49.984;10.672;2023-03-23T00:31:10;12.80;99.90
30134;DHT22;16946;49.984;10.672;2023-03-23T00:31:44;12.80;99.90
30134;DHT22;16946;49.984;10.672;2023-03-23T00:32:19;12.80;99.90
30134;DHT22;16946;49.984;10.672;2023-03-23T00:32:51;12.90;99.90
30134;DHT22;16946;49.984;10.672;2023-03-23T00:33:22;12.90;99.90
30134;DHT22;16946;49.984;10.672;2023-03-23T00:33:52;12.90;99.90
30134;DHT22;16946;49.984;10.672;2023-03-23T00:34:24;13.10;99.90
30134;DHT22;16946;49.984;10.672;2023-03-23T00:34:56;13.10;99.90
30134;DHT22;16946;49.984;10.672;2023-03-23T00:35:29;13.10;99.90
30134;DHT22;16946;49.984;10.672;2023-03-23T00:36:00;13.20;99.90
30134;DHT22;16946;49.984;10.672;2023-03-23T00:36:32;13.20;99.90
30134;DHT22;16946;49.984;10.672;2023-03-23T00:37:05;13.30;99.90
30134;DHT22;16946;49.984;10.672;2023-03-23T00:37:35;13.20;99.90
30134;DHT22;16946;49.984;10.672;2023-03-23T00:38:06;13.20;99.90
30134;DHT22;16946;49.984;10.672;2023-03-23T00:38:38;13.20;99.90
30134;DHT22;16946;49.984;10.672;2023-03-23T00:39:09;13.20;99.90
30134;DHT22;16946;49.984;10.672;2023-03-23T00:39:39;13.20;99.90
30134;DHT22;16946;49.984;10.672;2023-03-23T00:40:16;13.20;99.90
30134;DHT22;16946;49.984;10.672;2023-03-23T00:40:47;13.20;99.90
30134;DHT22;16946;49.984;10.672;2023-03-23T00:41:18;13.20;99.90
30134;DHT22;16946;49.984;10.672;2023-03-23T00:41:48;13.20;99.90
30134;DHT22;16946;49.984;10.672;2023-03-23T00:42:19;13.10;99.90
30134;DHT22;16946;49.984;10.672;2023-03-23T00:42:49;13.10;99.90
30134;DHT22;16946;49.984;10.672;2023-03-23T00:43:20;13.10;99.90
30134;DHT22;16946;49.984;10.672;2023-03-23T00:43:55;13.10;99.90
30134;DHT22;16946;49.984;10.672;2023-03-23T00:44:33;13.10;99.90
30134;DHT22;16946;49.984;10.672;2023-03-23T00:45:05;13.10;99.90
30134;DHT22;16946;49.984;10.672;2023-03-23T00:45:40;13.10;99.90
30134;DHT22;16946;49.984;10.672;2023-03-23T00:46:11;13.10;99.90
30134;DHT22;16946;49.984;10.672;2023-03-23T00:46:43;13.20;99.90
30134;DHT22;16946;49.984;10.672;2023-03-23T00:47:15;13.20;99.90
30134;DHT22;16946;49.984;10.672;2023-03-23T00:47:47;13.10;99.90
30134;DHT22;16946;49.984;10.672;2023-03-23T00:48:24;13.10;99.90
30134;DHT22;16946;49.984;10.672;2023-03-23T00:48:55;13.10;99.90
30134;DHT22;16946;49.984;10.672;2023-03-23T00:49:27;13.10;99.90
30134;DHT22;16946;49.984;10.672;2023-03-23T00:49:57;13.20;99.90
30134;DHT22;16946;49.984;10.672;2023-03-23T00:50:28;13.20;99.90
30134;DHT22;16946;49.984;10.672;2023-03-23T00:50:58;13.20;99.90
30134;DHT22;16946;49.984;10.672;2023-03-23T00:51:31;13.20;99.90
30134;DHT22;16946;49.984;10.672;2023-03-23T00:52:03;13.20;99.90
30134;DHT22;16946;49.984;10.672;2023-03-23T00:52:34;13.20;99.90
30134;DHT22;16946;49.984;10.672;2023-03-23T00:53:05;13.20;99.90
30134;DHT22;16946;49.984;10.672;2023-03-23T00:53:36;13.20;99.90
30134;DHT22;16946;49.984;10.672;2023-03-23T00:54:07;13.20;99.90
30134;DHT22;16946;49.984;10.672;2023-03-23T00:54:38;13.10;99.90
30134;DHT22;16946;49.984;10.672;2023-03-23T00:55:08;13.10;99.90
30134;DHT22;16946;49.984;10.672;2023-03-23T00:55:44;13.10;99.90
30134;DHT22;16946;49.984;10.672;2023-03-23T00:56:15;13.10;99.90
30134;DHT22;16946;49.984;10.672;2023-03-23T00:56:46;13.10;99.90
30134;DHT22;16946;49.984;10.672;2023-03-23T00:57:16;13.10;99.90
30134;DHT22;16946;49.984;10.672;2023-03-23T00:57:47;13.10;99.90
30134;DHT22;16946;49.984;10.672;2023-03-23T00:58:20;13.00;99.90
30134;DHT22;16946;49.984;10.672;2023-03-23T00:58:51;13.00;99.90
30134;DHT22;16946;49.984;10.672;2023-03-23T00:59:21;13.10;99.90
30134;DHT22;16946;49.984;10.672;2023-03-23T00:59:52;13.10;99.90
30134;DHT22;16946;49.984;10.672;2023-03-23T01:00:23;13.20;99.90
30134;DHT22;16946;49.984;10.672;2023-03-23T01:00:54;13.10;99.90
30134;DHT22;16946;49.984;10.672;2023-03-23T01:01:24;13.20;99.90
30134;DHT22;16946;49.984;10.672;2023-03-23T01:01:55;13.20;99.90
30134;DHT22;16946;49.984;10.672;2023-03-23T01:02:25;13.20;99.90
30134;DHT22;16946;49.984;10.672;2023-03-23T01:02:56;13.30;99.90
30134;DHT22;16946;49.984;10.672;2023-03-23T01:03:27;13.30;99.90
30134;DHT22;16946;49.984;10.672;2023-03-23T01:03:59;13.30;99.90
30134;DHT22;16946;49.984;10.672;2023-03-23T01:04:34;13.40;99.90
30134;DHT22;16946;49.984;10.672;2023-03-23T01:05:07;13.40;99.90
30134;DHT22;16946;49.984;10.672;2023-03-23T01:05:39;13.50;99.90
30134;DHT22;16946;49.984;10.672;2023-03-23T01:06:10;13.50;99.90
30134;DHT22;16946;49.984;10.672;2023-03-23T01:06:44;13.60;99.90
30134;DHT22;16946;49.984;10.672;2023-03-23T01:07:15;13.60;99.90
30134;DHT22;16946;49.984;10.672;2023-03-23T01:07:48;13.70;99.90
30134;DHT22;16946;49.984;10.672;2023-03-23T01:08:19;13.70;99.90
30134;DHT22;16946;49.984;10.672;2023-03-23T01:08:49;13.80;99.90
30134;DHT22;16946;49.984;10.672;2023-03-23T01:09:20;13.90;99.90
30134;DHT22;16946;49.984;10.672;2023-03-23T01:09:54;13.90;99.90
30134;DHT22;16946;49.984;10.672;2023-03-23T01:10:25;14.00;99.90
30134;DHT22;16946;49.984;10.672;2023-03-23T01:11:04;14.00;99.90
30134;DHT22;16946;49.984;10.672;2023-03-23T01:11:35;14.10;99.90
30134;DHT22;16946;49.984;10.672;2023-03-23T01:12:06;14.10;99.90
30134;DHT22;16946;49.984;10.672;2023-03-23T01:12:38;14.10;99.90
30134;DHT22;16946;49.984;10.672;2023-03-23T01:13:08;14.20;99.90
30134;DHT22;16946;49.984;10.672;2023-03-23T01:13:39;14.20;99.90
30134;DHT22;16946;49.984;10.672;2023-03-23T01:14:12;14.20;99.90
30134;DHT22;16946;49.984;10.672;2023-03-23T01:14:43;14.30;99.90
30134;DHT22;16946;49.984;10.672;2023-03-23T01:15:15;14.30;99.90
30134;DHT22;16946;49.984;10.672;2023-03-23T01:15:46;14.30;99.90
30134;DHT22;16946;49.984;10.672;2023-03-23T01:16:17;14.40;99.90
30134;DHT22;16946;49.984;10.672;2023-03-23T01:16:47;14.40;99.90
30134;DHT22;16946;49.984;10.672;2023-03-23T01:17:18;14.50;99.90
30134;DHT22;16946;49.984;10.672;2023-03-23T01:17:49;14.50;99.90
30134;DHT22;16946;49.984;10.672;2023-03-23T01:18:19;14.50;99.90
30134;DHT22;16946;49.984;10.672;2023-03-23T01:18:50;14.50;99.90
30134;DHT22;16946;49.984;10.672;2023-03-23T01:19:21;14.50;99.90
30134;DHT22;16946;49.984;10.672;2023-03-23T01:19:51;14.50;99.90
30134;DHT22;16946;49.984;10.672;2023-03-23T01:20:24;14.60;99.90
30134;DHT22;16946;49.984;10.672;2023-03-23T01:20:54;14.60;99.90
30134;DHT22;16946;49.984;10.672;2023-03-23T01:21:25;14.60;99.90
30134;DHT22;16946;49.984;10.672;2023-03-23T01:21:56;14.70;99.90
30134;DHT22;16946;49.984;10.672;2023-03-23T01:22:26;14.70;99.90
30134;DHT22;16946;49.984;10.672;2023-03-23T01:23:00;14.70;99.90
30134;DHT22;16946;49.984;10.672;2023-03-23T01:23:33;14.70;99.90
30134;DHT22;16946;49.984;10.672;2023-03-23T01:24:04;14.80;99.90
30134;DHT22;16946;49.984;10.672;2023-03-23T01:24:35;14.80;99.90
30134;DHT22;16946;49.984;10.672;2023-03-23T01:25:06;14.70;99.90
30134;DHT22;16946;49.984;10.672;2023-03-23T01:25:37;14.80;99.90
30134;DHT22;16946;49.984;10.672;2023-03-23T01:26:11;14.80;99.90
30134;DHT22;16946;49.984;10.672;2023-03-23T01:26:42;14.80;99.90
30134;DHT22;16946;49.984;10.672;2023-03-23T01:27:13;14.70;99.90
30134;DHT22;16946;49.984;10.672;2023-03-23T01:27:43;14.70;99.90
30134;DHT22;16946;49.984;10.672;2023-03-23T01:28:14;14.70;99.90
30134;DHT22;16946;49.984;10.672;2023-03-23T01:28:45;14.70;99.90
30134;DHT22;16946;49.984;10.672;2023-03-23T01:29:15;14.70;99.90
30134;DHT22;16946;49.984;10.672;2023-03-23T01:29:46;14.70;99.90
30134;DHT22;16946;49.984;10.672;2023-03-23T01:30:16;14.70;99.90
30134;DHT22;16946;49.984;10.672;2023-03-23T01:30:47;14.70;99.90
30134;DHT22;16946;49.984;10.672;2023-03-23T01:31:20;14.70;99.90
30134;DHT22;16946;49.984;10.672;2023-03-23T01:31:51;14.70;99.90
30134;DHT22;16946;49.984;10.672;2023-03-23T01:32:21;14.70;99.90
30134;DHT22;16946;49.984;10.672;2023-03-23T01:32:52;14.70;99.90
30134;DHT22;16946;49.984;10.672;2023-03-23T01:33:22;14.70;99.90
30134;DHT22;16946;49.984;10.672;2023-03-23T01:33:53;14.70;99.90
30134;DHT22;16946;49.984;10.672;2023-03-23T01:34:25;14.70;99.90
30134;DHT22;16946;49.984;10.672;2023-03-23T01:34:56;14.70;99.90
30134;DHT22;16946;49.984;10.672;2023-03-23T01:35:26;14.70;99.90
30134;DHT22;16946;49.984;10.672;2023-03-23T01:35:58;14.70;99.90
30134;DHT22;16946;49.984;10.672;2023-03-23T01:36:29;14.70;99.90
30134;DHT22;16946;49.984;10.672;2023-03-23T01:37:02;14.70;99.90
30134;DHT22;16946;49.984;10.672;2023-03-23T01:37:33;14.60;99.90
30134;DHT22;16946;49.984;10.672;2023-03-23T01:38:03;14.70;99.90
30134;DHT22;16946;49.984;10.672;2023-03-23T01:38:34;14.70;99.90
30134;DHT22;16946;49.984;10.672;2023-03-23T01:39:05;14.70;99.90
30134;DHT22;16946;49.984;10.672;2023-03-23T01:39:36;14.70;99.90
30134;DHT22;16946;49.984;10.672;2023-03-23T01:40:08;14.70;99.90
30134;DHT22;16946;49.984;10.672;2023-03-23T01:40:38;14.70;99.90
30134;DHT22;16946;49.984;10.672;2023-03-23T01:41:10;14.70;99.90
30134;DHT22;16946;49.984;10.672;2023-03-23T01:41:41;14.60;99.90
30134;DHT22;16946;49.984;10.672;2023-03-23T01:42:12;14.60;99.90
30134;DHT22;16946;49.984;10.672;2023-03-23T01:42:42;14.60;99.90
30134;DHT22;16946;49.984;10.672;2023-03-23T01:43:14;14.60;99.90
30134;DHT22;16946;49.984;10.672;2023-03-23T01:44:07;14.60;99.90
30134;DHT22;16946;49.984;10.672;2023-03-23T01:45:28;14.70;99.90
30134;DHT22;16946;49.984;10.672;2023-03-23T01:45:59;14.60;99.90
30134;DHT22;16946;49.984;10.672;2023-03-23T01:46:32;14.70;99.90
30134;DHT22;16946;49.984;10.672;2023-03-23T01:47:03;14.60;99.90
30134;DHT22;16946;49.984;10.672;2023-03-23T01:47:34;14.60;99.90
30134;DHT22;16946;49.984;10.672;2023-03-23T01:48:26;14.60;99.90
30134;DHT22;16946;49.984;10.672;2023-03-23T01:49:02;14.60;99.90
30134;DHT22;16946;49.984;10.672;2023-03-23T01:49:41;14.60;99.90
30134;DHT22;16946;49.984;10.672;2023-03-23T01:50:13;14.60;99.90
30134;DHT22;16946;49.984;10.672;2023-03-23T01:50:50;14.60;99.90
30134;DHT22;16946;49.984;10.672;2023-03-23T01:51:21;14.60;99.90
30134;DHT22;16946;49.984;10.672;2023-03-23T01:51:55;14.60;99.90
30134;DHT22;16946;49.984;10.672;2023-03-23T01:52:27;14.50;99.90
30134;DHT22;16946;49.984;10.672;2023-03-23T01:53:00;14.60;99.90
30134;DHT22;16946;49.984;10.672;2023-03-23T01:53:36;14.60;99.90
30134;DHT22;16946;49.984;10.672;2023-03-23T01:54:12;14.60;99.90
30134;DHT22;16946;49.984;10.672;2023-03-23T01:54:45;14.60;99.90
30134;DHT22;16946;49.984;10.672;2023-03-23T01:55:17;14.60;99.90
30134;DHT22;16946;49.984;10.672;2023-03-23T01:55:50;14.60;99.90
30134;DHT22;16946;49.984;10.672;2023-03-23T01:56:27;14.60;99.90
30134;DHT22;16946;49.984;10.672;2023-03-23T01:57:04;14.60;99.90
30134;DHT22;16946;49.984;10.672;2023-03-23T01:57:36;14.60;99.90
30134;DHT22;16946;49.984;10.672;2023-03-23T01:58:08;14.60;99.90
30134;DHT22;16946;49.984;10.672;2023-03-23T01:58:40;14.60;99.90
30134;DHT22;16946;49.984;10.672;2023-03-23T01:59:12;14.60;99.90
30134;DHT22;16946;49.984;10.672;2023-03-23T01:59:47;14.60;99.90
30134;DHT22;16946;49.984;10.672;2023-03-23T02:00:20;14.50;99.90
30134;DHT22;16946;49.984;10.672;2023-03-23T02:00:54;14.60;99.90
30134;DHT22;16946;49.984;10.672;2023-03-23T02:01:25;14.60;99.90
30134;DHT22;16946;49.984;10.672;2023-03-23T02:01:56;14.60;99.90
30134;DHT22;16946;49.984;10.672;2023-03-23T02:02:27;14.60;99.90
30134;DHT22;16946;49.984;10.672;2023-03-23T02:02:57;14.60;99.90
30134;DHT22;16946;49.984;10.672;2023-03-23T02:03:29;14.60;99.90
30134;DHT22;16946;49.984;10.672;2023-03-23T02:04:01;14.60;99.90
30134;DHT22;16946;49.984;10.672;2023-03-23T02:04:34;14.60;99.90
30134;DHT22;16946;49.984;10.672;2023-03-23T02:05:10;14.60;99.90
30134;DHT22;16946;49.984;10.672;2023-03-23T02:05:42;14.60;99.90
30134;DHT22;16946;49.984;10.672;2023-03-23T02:06:12;14.50;99.90
30134;DHT22;16946;49.984;10.672;2023-03-23T02:06:43;14.60;99.90
30134;DHT22;16946;49.984;10.672;2023-03-23T02:07:17;14.60;99.90
30134;DHT22;16946;49.984;10.672;2023-03-23T02:07:50;14.60;99.90
30134;DHT22;16946;49.984;10.672;2023-03-23T02:08:21;14.60;99.90
30134;DHT22;16946;49.984;10.672;2023-03-23T02:08:53;14.60;99.90
30134;DHT22;16946;49.984;10.672;2023-03-23T02:09:26;14.60;99.90
30134;DHT22;16946;49.984;10.672;2023-03-23T02:09:57;14.60;99.90
30134;DHT22;16946;49.984;10.672;2023-03-23T02:10:31;14.60;99.90
30134;DHT22;16946;49.984;10.672;2023-03-23T02:11:11;14.60;99.90
30134;DHT22;16946;49.984;10.672;2023-03-23T02:11:42;14.70;99.90
30134;DHT22;16946;49.984;10.672;2023-03-23T02:12:13;14.70;99.90
30134;DHT22;16946;49.984;10.672;2023-03-23T02:12:43;14.70;99.90
30134;DHT22;16946;49.984;10.672;2023-03-23T02:13:14;14.60;99.90
30134;DHT22;16946;49.984;10.672;2023-03-23T02:13:46;14.60;99.90
30134;DHT22;16946;49.984;10.672;2023-03-23T02:14:17;14.70;99.90
30134;DHT22;16946;49.984;10.672;2023-03-23T02:14:48;14.60;99.90
30134;DHT22;16946;49.984;10.672;2023-03-23T02:15:19;14.70;99.90
30134;DHT22;16946;49.984;10.672;2023-03-23T02:18:08;14.70;99.90
30134;DHT22;16946;49.984;10.672;2023-03-23T02:21:06;14.70;99.90
30134;DHT22;16946;49.984;10.672;2023-03-23T02:22:10;14.70;99.90
30134;DHT22;16946;49.984;10.672;2023-03-23T02:25:40;14.60;99.90
30134;DHT22;16946;49.984;10.672;2023-03-23T02:26:39;14.60;99.90
30134;DHT22;16946;49.984;10.672;2023-03-23T02:28:26;14.50;99.90
30134;DHT22;16946;49.984;10.672;2023-03-23T02:34:53;14.50;99.90
30134;DHT22;16946;49.984;10.672;2023-03-23T02:35:32;14.50;99.90
30134;DHT22;16946;49.984;10.672;2023-03-23T02:36:56;14.40;99.90
30134;DHT22;16946;49.984;10.672;2023-03-23T02:37:33;14.40;99.90
30134;DHT22;16946;49.984;10.672;2023-03-23T02:38:10;14.40;99.90
30134;DHT22;16946;49.984;10.672;2023-03-23T02:40:10;14.30;99.90
30134;DHT22;16946;49.984;10.672;2023-03-23T02:40:48;14.40;99.90
30134;DHT22;16946;49.984;10.672;2023-03-23T02:41:24;14.40;99.90
30134;DHT22;16946;49.984;10.672;2023-03-23T02:42:05;14.30;99.90
30134;DHT22;16946;49.984;10.672;2023-03-23T02:42:39;14.40;99.90
30134;DHT22;16946;49.984;10.672;2023-03-23T02:43:15;14.40;99.90
30134;DHT22;16946;49.984;10.672;2023-03-23T02:43:46;14.40;99.90
30134;DHT22;16946;49.984;10.672;2023-03-23T02:44:18;14.40;99.90
30134;DHT22;16946;49.984;10.672;2023-03-23T02:44:50;14.40;99.90
30134;DHT22;16946;49.984;10.672;2023-03-23T02:45:23;14.40;99.90
30134;DHT22;16946;49.984;10.672;2023-03-23T02:45:55;14.40;99.90
30134;DHT22;16946;49.984;10.672;2023-03-23T02:46:27;14.40;99.90
30134;DHT22;16946;49.984;10.672;2023-03-23T02:47:02;14.40;99.90
30134;DHT22;16946;49.984;10.672;2023-03-23T02:47:35;14.40;99.90
30134;DHT22;16946;49.984;10.672;2023-03-23T02:48:08;14.30;99.90
30134;DHT22;16946;49.984;10.672;2023-03-23T02:48:41;14.30;99.90
30134;DHT22;16946;49.984;10.672;2023-03-23T02:49:15;14.40;99.90
30134;DHT22;16946;49.984;10.672;2023-03-23T02:49:48;14.40;99.90
30134;DHT22;16946;49.984;10.672;2023-03-23T02:50:22;14.40;99.90
30134;DHT22;16946;49.984;10.672;2023-03-23T02:50:54;14.40;99.90
30134;DHT22;16946;49.984;10.672;2023-03-23T02:51:25;14.40;99.90
30134;DHT22;16946;49.984;10.672;2023-03-23T02:51:58;14.40;99.90
30134;DHT22;16946;49.984;10.672;2023-03-23T02:52:30;14.30;99.90
30134;DHT22;16946;49.984;10.672;2023-03-23T02:53:03;14.30;99.90
30134;DHT22;16946;49.984;10.672;2023-03-23T02:53:39;14.30;99.90
30134;DHT22;16946;49.984;10.672;2023-03-23T02:54:11;14.30;99.90
30134;DHT22;16946;49.984;10.672;2023-03-23T02:54:44;14.30;99.90
30134;DHT22;16946;49.984;10.672;2023-03-23T02:55:18;14.30;99.90
30134;DHT22;16946;49.984;10.672;2023-03-23T02:55:50;14.30;99.90
30134;DHT22;16946;49.984;10.672;2023-03-23T02:56:25;14.40;99.90
30134;DHT22;16946;49.984;10.672;2023-03-23T02:56:58;14.40;99.90
30134;DHT22;16946;49.984;10.672;2023-03-23T02:57:29;14.40;99.90
30134;DHT22;16946;49.984;10.672;2023-03-23T02:58:00;14.40;99.90
30134;DHT22;16946;49.984;10.672;2023-03-23T02:58:33;14.40;99.90
30134;DHT22;16946;49.984;10.672;2023-03-23T02:59:03;14.40;99.90
30134;DHT22;16946;49.984;10.672;2023-03-23T02:59:34;14.40;99.90
30134;DHT22;16946;49.984;10.672;2023-03-23T03:00:06;14.40;99.90
30134;DHT22;16946;49.984;10.672;2023-03-23T03:00:45;14.40;99.90
30134;DHT22;16946;49.984;10.672;2023-03-23T03:02:09;14.40;99.90
30134;DHT22;16946;49.984;10.672;2023-03-23T03:02:44;14.40;99.90
30134;DHT22;16946;49.984;10.672;2023-03-23T03:03:19;14.40;99.90
30134;DHT22;16946;49.984;10.672;2023-03-23T03:03:52;14.40;99.90
30134;DHT22;16946;49.984;10.672;2023-03-23T03:04:26;14.40;99.90
30134;DHT22;16946;49.984;10.672;2023-03-23T03:06:31;14.30;99.90
30134;DHT22;16946;49.984;10.672;2023-03-23T03:07:14;14.30;99.90
30134;DHT22;16946;49.984;10.672;2023-03-23T03:08:55;14.40;99.90
30134;DHT22;16946;49.984;10.672;2023-03-23T03:10:25;14.40;99.90
30134;DHT22;16946;49.984;10.672;2023-03-23T03:11:35;14.40;99.90
30134;DHT22;16946;49.984;10.672;2023-03-23T03:12:24;14.40;99.90
30134;DHT22;16946;49.984;10.672;2023-03-23T03:13:14;14.40;99.90
30134;DHT22;16946;49.984;10.672;2023-03-23T03:14:30;14.40;99.90
30134;DHT22;16946;49.984;10.672;2023-03-23T03:16:07;14.30;99.90
30134;DHT22;16946;49.984;10.672;2023-03-23T03:16:45;14.30;99.90
30134;DHT22;16946;49.984;10.672;2023-03-23T03:17:26;14.30;99.90
30134;DHT22;16946;49.984;10.672;2023-03-23T03:18:18;14.30;99.90
30134;DHT22;16946;49.984;10.672;2023-03-23T03:19:32;14.30;99.90
30134;DHT22;16946;49.984;10.672;2023-03-23T03:20:04;14.30;99.90
30134;DHT22;16946;49.984;10.672;2023-03-23T03:20:49;14.30;99.90
30134;DHT22;16946;49.984;10.672;2023-03-23T03:21:21;14.20;99.90
30134;DHT22;16946;49.984;10.672;2023-03-23T03:21:57;14.30;99.90
30134;DHT22;16946;49.984;10.672;2023-03-23T03:22:29;14.30;99.90
30134;DHT22;16946;49.984;10.672;2023-03-23T03:23:00;14.30;99.90
30134;DHT22;16946;49.984;10.672;2023-03-23T03:23:32;14.30;99.90
30134;DHT22;16946;49.984;10.672;2023-03-23T03:24:05;14.30;99.90
30134;DHT22;16946;49.984;10.672;2023-03-23T03:24:42;14.30;99.90
30134;DHT22;16946;49.984;10.672;2023-03-23T03:25:15;14.30;99.90
30134;DHT22;16946;49.984;10.672;2023-03-23T03:25:47;14.30;99.90
30134;DHT22;16946;49.984;10.672;2023-03-23T03:26:19;14.30;99.90
30134;DHT22;16946;49.984;10.672;2023-03-23T03:26:52;14.30;99.90
30134;DHT22;16946;49.984;10.672;2023-03-23T03:27:24;14.30;99.90
30134;DHT22;16946;49.984;10.672;2023-03-23T03:27:55;14.30;99.90
30134;DHT22;16946;49.984;10.672;2023-03-23T03:28:27;14.30;99.90
30134;DHT22;16946;49.984;10.672;2023-03-23T03:28:58;14.30;99.90
30134;DHT22;16946;49.984;10.672;2023-03-23T03:29:35;14.30;99.90
30134;DHT22;16946;49.984;10.672;2023-03-23T03:30:10;14.30;99.90
30134;DHT22;16946;49.984;10.672;2023-03-23T03:30:43;14.30;99.90
30134;DHT22;16946;49.984;10.672;2023-03-23T03:31:17;14.30;99.90
30134;DHT22;16946;49.984;10.672;2023-03-23T03:31:52;14.30;99.90
30134;DHT22;16946;49.984;10.672;2023-03-23T03:32:36;14.30;99.90
30134;DHT22;16946;49.984;10.672;2023-03-23T03:33:09;14.30;99.90
30134;DHT22;16946;49.984;10.672;2023-03-23T03:33:41;14.30;99.90
30134;DHT22;16946;49.984;10.672;2023-03-23T03:34:13;14.30;99.90
30134;DHT22;16946;49.984;10.672;2023-03-23T03:34:47;14.30;99.90
30134;DHT22;16946;49.984;10.672;2023-03-23T03:35:22;14.40;99.90
30134;DHT22;16946;49.984;10.672;2023-03-23T03:35:53;14.30;99.90
30134;DHT22;16946;49.984;10.672;2023-03-23T03:36:27;14.40;99.90
30134;DHT22;16946;49.984;10.672;2023-03-23T03:37:05;14.40;99.90
30134;DHT22;16946;49.984;10.672;2023-03-23T03:37:37;14.40;99.90
30134;DHT22;16946;49.984;10.672;2023-03-23T03:38:11;14.40;99.90
30134;DHT22;16946;49.984;10.672;2023-03-23T03:38:43;14.40;99.90
30134;DHT22;16946;49.984;10.672;2023-03-23T03:39:15;14.40;99.90
30134;DHT22;16946;49.984;10.672;2023-03-23T03:39:47;14.40;99.90
30134;DHT22;16946;49.984;10.672;2023-03-23T03:40:20;14.30;99.90
30134;DHT22;16946;49.984;10.672;2023-03-23T03:40:51;14.30;99.90
30134;DHT22;16946;49.984;10.672;2023-03-23T03:41:22;14.30;99.90
30134;DHT22;16946;49.984;10.672;2023-03-23T03:41:53;14.30;99.90
30134;DHT22;16946;49.984;10.672;2023-03-23T03:42:24;14.30;99.90
30134;DHT22;16946;49.984;10.672;2023-03-23T03:42:55;14.30;99.90
30134;DHT22;16946;49.984;10.672;2023-03-23T03:43:25;14.30;99.90
30134;DHT22;16946;49.984;10.672;2023-03-23T03:43:56;14.40;99.90
30134;DHT22;16946;49.984;10.672;2023-03-23T03:44:27;14.40;99.90
30134;DHT22;16946;49.984;10.672;2023-03-23T03:44:57;14.40;99.90
30134;DHT22;16946;49.984;10.672;2023-03-23T03:45:28;14.30;99.90
30134;DHT22;16946;49.984;10.672;2023-03-23T03:45:58;14.40;99.90
30134;DHT22;16946;49.984;10.672;2023-03-23T03:46:29;14.40;99.90
30134;DHT22;16946;49.984;10.672;2023-03-23T03:47:01;14.30;99.90
30134;DHT22;16946;49.984;10.672;2023-03-23T03:47:31;14.30;99.90
30134;DHT22;16946;49.984;10.672;2023-03-23T03:48:02;14.20;99.90
30134;DHT22;16946;49.984;10.672;2023-03-23T03:48:33;14.10;99.90
30134;DHT22;16946;49.984;10.672;2023-03-23T03:49:08;14.10;99.90